Terminal Aerodrome Forecast
Issued by NWS

Current Version | Previous Version | Graphics & Text | Print | Product List | Glossary On
Versions: 1 2 3 4 5 6 7 8 9 10 11 12 13 14 15 16 17 18
399
FTUS41 KPBZ 071340 AAA
TAFHLG
TAF AMD
KHLG 071340Z 0714/0812 16005KT P6SM BKN060
     FM071800 18008KT P6SM BKN150=

USA.gov is the U.S. government's official web portal to all federal, state and local government web resources and services.